sensor_id;sensor_type;location;lat;lon;timestamp;temperature;humidity
7445;DHT22;3764;48.126;11.594;2023-04-15T00:00:10;6.40;99.90
7445;DHT22;3764;48.126;11.594;2023-04-15T00:02:37;6.40;99.90
7445;DHT22;3764;48.126;11.594;2023-04-15T00:05:07;6.50;99.90
7445;DHT22;3764;48.126;11.594;2023-04-15T00:07:34;6.50;99.90
7445;DHT22;3764;48.126;11.594;2023-04-15T00:10:02;6.50;99.90
7445;DHT22;3764;48.126;11.594;2023-04-15T00:12:30;6.40;99.90
7445;DHT22;3764;48.126;11.594;2023-04-15T00:14:57;6.40;99.90
7445;DHT22;3764;48.126;11.594;2023-04-15T00:17:24;6.40;99.90
7445;DHT22;3764;48.126;11.594;2023-04-15T00:19:51;6.40;99.90
7445;DHT22;3764;48.126;11.594;2023-04-15T00:22:20;6.30;99.90
7445;DHT22;3764;48.126;11.594;2023-04-15T00:24:47;6.30;99.90
7445;DHT22;3764;48.126;11.594;2023-04-15T00:27:14;6.30;99.90
7445;DHT22;3764;48.126;11.594;2023-04-15T00:29:41;6.40;99.90
7445;DHT22;3764;48.126;11.594;2023-04-15T00:32:08;6.40;99.90
7445;DHT22;3764;48.126;11.594;2023-04-15T00:34:35;6.50;99.90
7445;DHT22;3764;48.126;11.594;2023-04-15T00:37:05;6.50;99.90
7445;DHT22;3764;48.126;11.594;2023-04-15T00:39:33;6.50;99.90
7445;DHT22;3764;48.126;11.594;2023-04-15T00:42:01;6.50;99.90
7445;DHT22;3764;48.126;11.594;2023-04-15T00:44:28;6.50;99.90
7445;DHT22;3764;48.126;11.594;2023-04-15T00:46:56;6.50;99.90
7445;DHT22;3764;48.126;11.594;2023-04-15T00:49:23;6.50;99.90
7445;DHT22;3764;48.126;11.594;2023-04-15T00:51:51;6.50;99.90
7445;DHT22;3764;48.126;11.594;2023-04-15T00:54:18;6.50;99.90
7445;DHT22;3764;48.126;11.594;2023-04-15T00:56:47;6.60;99.90
7445;DHT22;3764;48.126;11.594;2023-04-15T00:59:15;6.60;99.90
7445;DHT22;3764;48.126;11.594;2023-04-15T01:01:43;6.60;99.90
7445;DHT22;3764;48.126;11.594;2023-04-15T01:04:10;6.60;99.90
7445;DHT22;3764;48.126;11.594;2023-04-15T01:06:38;6.70;99.90
7445;DHT22;3764;48.126;11.594;2023-04-15T01:09:05;6.70;99.90
7445;DHT22;3764;48.126;11.594;2023-04-15T01:11:32;6.70;99.90
7445;DHT22;3764;48.126;11.594;2023-04-15T01:14:01;6.70;99.90
7445;DHT22;3764;48.126;11.594;2023-04-15T01:16:29;6.60;99.90
7445;DHT22;3764;48.126;11.594;2023-04-15T01:18:57;6.70;99.90
7445;DHT22;3764;48.126;11.594;2023-04-15T01:21:24;6.60;99.90
7445;DHT22;3764;48.126;11.594;2023-04-15T01:23:52;6.60;99.90
7445;DHT22;3764;48.126;11.594;2023-04-15T01:26:21;6.60;99.90
7445;DHT22;3764;48.126;11.594;2023-04-15T01:28:48;6.60;99.90
7445;DHT22;3764;48.126;11.594;2023-04-15T01:31:15;6.60;99.90
7445;DHT22;3764;48.126;11.594;2023-04-15T01:33:42;6.60;99.90
7445;DHT22;3764;48.126;11.594;2023-04-15T01:36:11;6.60;99.90
7445;DHT22;3764;48.126;11.594;2023-04-15T01:38:39;6.70;99.90
7445;DHT22;3764;48.126;11.594;2023-04-15T01:41:06;6.70;99.90
7445;DHT22;3764;48.126;11.594;2023-04-15T01:43:35;6.60;99.90
7445;DHT22;3764;48.126;11.594;2023-04-15T01:46:02;6.60;99.90
7445;DHT22;3764;48.126;11.594;2023-04-15T01:48:29;6.60;99.90
7445;DHT22;3764;48.126;11.594;2023-04-15T01:50:57;6.60;99.90
7445;DHT22;3764;48.126;11.594;2023-04-15T01:53:25;6.60;99.90
7445;DHT22;3764;48.126;11.594;2023-04-15T01:55:52;6.60;99.90
7445;DHT22;3764;48.126;11.594;2023-04-15T01:58:19;6.60;99.90
7445;DHT22;3764;48.126;11.594;2023-04-15T02:00:48;6.60;99.90
7445;DHT22;3764;48.126;11.594;2023-04-15T02:03:16;6.50;99.90
7445;DHT22;3764;48.126;11.594;2023-04-15T02:05:43;6.50;99.90
7445;DHT22;3764;48.126;11.594;2023-04-15T02:08:10;6.50;99.90
7445;DHT22;3764;48.126;11.594;2023-04-15T02:10:37;6.50;99.90
7445;DHT22;3764;48.126;11.594;2023-04-15T02:13:04;6.40;99.90
7445;DHT22;3764;48.126;11.594;2023-04-15T02:15:31;6.40;99.90
7445;DHT22;3764;48.126;11.594;2023-04-15T02:18:00;6.40;99.90
7445;DHT22;3764;48.126;11.594;2023-04-15T02:20:27;6.40;99.90
7445;DHT22;3764;48.126;11.594;2023-04-15T02:22:56;6.40;99.90
7445;DHT22;3764;48.126;11.594;2023-04-15T02:25:23;6.40;99.90
7445;DHT22;3764;48.126;11.594;2023-04-15T02:27:50;6.40;99.90
7445;DHT22;3764;48.126;11.594;2023-04-15T02:30:18;6.40;99.90
7445;DHT22;3764;48.126;11.594;2023-04-15T02:32:45;6.40;99.90
7445;DHT22;3764;48.126;11.594;2023-04-15T02:35:15;6.40;99.90
7445;DHT22;3764;48.126;11.594;2023-04-15T02:37:44;6.30;99.90
7445;DHT22;3764;48.126;11.594;2023-04-15T02:40:12;6.40;99.90
7445;DHT22;3764;48.126;11.594;2023-04-15T02:42:39;6.40;99.90
7445;DHT22;3764;48.126;11.594;2023-04-15T02:45:08;6.40;99.90
7445;DHT22;3764;48.126;11.594;2023-04-15T02:47:37;6.40;99.90
7445;DHT22;3764;48.126;11.594;2023-04-15T02:50:08;6.40;99.90
7445;DHT22;3764;48.126;11.594;2023-04-15T02:52:38;6.40;99.90
7445;DHT22;3764;48.126;11.594;2023-04-15T02:55:06;6.40;99.90
7445;DHT22;3764;48.126;11.594;2023-04-15T02:57:34;6.40;99.90
7445;DHT22;3764;48.126;11.594;2023-04-15T03:00:04;6.50;99.90
7445;DHT22;3764;48.126;11.594;2023-04-15T03:02:33;6.40;99.90
7445;DHT22;3764;48.126;11.594;2023-04-15T03:05:01;6.40;99.90
7445;DHT22;3764;48.126;11.594;2023-04-15T03:07:28;6.40;99.90
7445;DHT22;3764;48.126;11.594;2023-04-15T03:09:56;6.30;99.90
7445;DHT22;3764;48.126;11.594;2023-04-15T03:12:23;6.40;99.90
7445;DHT22;3764;48.126;11.594;2023-04-15T03:14:50;6.40;99.90
7445;DHT22;3764;48.126;11.594;2023-04-15T03:17:17;6.40;99.90
7445;DHT22;3764;48.126;11.594;2023-04-15T03:19:44;6.50;99.90
7445;DHT22;3764;48.126;11.594;2023-04-15T03:22:12;6.50;99.90
7445;DHT22;3764;48.126;11.594;2023-04-15T03:24:39;6.50;99.90
7445;DHT22;3764;48.126;11.594;2023-04-15T03:27:07;6.40;99.90
7445;DHT22;3764;48.126;11.594;2023-04-15T03:29:34;6.50;99.90
7445;DHT22;3764;48.126;11.594;2023-04-15T03:32:01;6.50;99.90
7445;DHT22;3764;48.126;11.594;2023-04-15T03:34:28;6.50;99.90
7445;DHT22;3764;48.126;11.594;2023-04-15T03:36:56;6.50;99.90
7445;DHT22;3764;48.126;11.594;2023-04-15T03:39:23;6.50;99.90
7445;DHT22;3764;48.126;11.594;2023-04-15T03:41:50;6.50;99.90
7445;DHT22;3764;48.126;11.594;2023-04-15T03:44:18;6.40;99.90
7445;DHT22;3764;48.126;11.594;2023-04-15T03:46:46;6.40;99.90
7445;DHT22;3764;48.126;11.594;2023-04-15T03:49:13;6.40;99.90
7445;DHT22;3764;48.126;11.594;2023-04-15T03:51:40;6.50;99.90
7445;DHT22;3764;48.126;11.594;2023-04-15T03:54:07;6.40;99.90
7445;DHT22;3764;48.126;11.594;2023-04-15T03:56:35;6.40;99.90
7445;DHT22;3764;48.126;11.594;2023-04-15T03:59:02;6.50;99.90
7445;DHT22;3764;48.126;11.594;2023-04-15T04:01:30;6.50;99.90
7445;DHT22;3764;48.126;11.594;2023-04-15T04:03:57;6.50;99.90
7445;DHT22;3764;48.126;11.594;2023-04-15T04:06:24;6.50;99.90
7445;DHT22;3764;48.126;11.594;2023-04-15T04:08:52;6.50;99.90
7445;DHT22;3764;48.126;11.594;2023-04-15T04:11:19;6.50;99.90
7445;DHT22;3764;48.126;11.594;2023-04-15T04:13:46;6.50;99.90
7445;DHT22;3764;48.126;11.594;2023-04-15T04:16:13;6.50;99.90
7445;DHT22;3764;48.126;11.594;2023-04-15T04:18:42;6.50;99.90
7445;DHT22;3764;48.126;11.594;2023-04-15T04:21:09;6.50;99.90
7445;DHT22;3764;48.126;11.594;2023-04-15T04:23:36;6.50;99.90
7445;DHT22;3764;48.126;11.594;2023-04-15T04:26:03;6.40;99.90
7445;DHT22;3764;48.126;11.594;2023-04-15T04:28:30;6.40;99.90
7445;DHT22;3764;48.126;11.594;2023-04-15T04:30:58;6.40;99.90
7445;DHT22;3764;48.126;11.594;2023-04-15T04:33:25;6.40;99.90
7445;DHT22;3764;48.126;11.594;2023-04-15T04:35:53;6.50;99.90
7445;DHT22;3764;48.126;11.594;2023-04-15T04:38:20;6.50;99.90
7445;DHT22;3764;48.126;11.594;2023-04-15T04:40:47;6.50;99.90
7445;DHT22;3764;48.126;11.594;2023-04-15T04:43:15;6.40;99.90
7445;DHT22;3764;48.126;11.594;2023-04-15T04:45:42;6.40;99.90
7445;DHT22;3764;48.126;11.594;2023-04-15T04:48:09;6.40;99.90
7445;DHT22;3764;48.126;11.594;2023-04-15T04:50:36;6.30;99.90
7445;DHT22;3764;48.126;11.594;2023-04-15T04:53:04;6.40;99.90
7445;DHT22;3764;48.126;11.594;2023-04-15T04:55:31;6.30;99.90
7445;DHT22;3764;48.126;11.594;2023-04-15T04:58:01;6.40;99.90
7445;DHT22;3764;48.126;11.594;2023-04-15T05:00:28;6.40;99.90
7445;DHT22;3764;48.126;11.594;2023-04-15T05:02:56;6.40;99.90
7445;DHT22;3764;48.126;11.594;2023-04-15T05:05:23;6.40;99.90
7445;DHT22;3764;48.126;11.594;2023-04-15T05:07:50;6.40;99.90
7445;DHT22;3764;48.126;11.594;2023-04-15T05:10:18;6.40;99.90
7445;DHT22;3764;48.126;11.594;2023-04-15T05:12:45;6.40;99.90
7445;DHT22;3764;48.126;11.594;2023-04-15T05:15:13;6.40;99.90
7445;DHT22;3764;48.126;11.594;2023-04-15T05:17:40;6.40;99.90
7445;DHT22;3764;48.126;11.594;2023-04-15T05:20:07;6.40;99.90
7445;DHT22;3764;48.126;11.594;2023-04-15T05:22:35;6.50;99.90
7445;DHT22;3764;48.126;11.594;2023-04-15T05:25:03;6.50;99.90
7445;DHT22;3764;48.126;11.594;2023-04-15T05:27:31;6.50;99.90
7445;DHT22;3764;48.126;11.594;2023-04-15T05:29:58;6.40;99.90
7445;DHT22;3764;48.126;11.594;2023-04-15T05:32:26;6.50;99.90
7445;DHT22;3764;48.126;11.594;2023-04-15T05:34:53;6.50;99.90
7445;DHT22;3764;48.126;11.594;2023-04-15T05:37:20;6.50;99.90
7445;DHT22;3764;48.126;11.594;2023-04-15T05:39:47;6.40;99.90
7445;DHT22;3764;48.126;11.594;2023-04-15T05:42:14;6.40;99.90
7445;DHT22;3764;48.126;11.594;2023-04-15T05:44:43;6.40;99.90
7445;DHT22;3764;48.126;11.594;2023-04-15T05:47:10;6.40;99.90
7445;DHT22;3764;48.126;11.594;2023-04-15T05:49:37;6.50;99.90
7445;DHT22;3764;48.126;11.594;2023-04-15T05:52:04;6.50;99.90
7445;DHT22;3764;48.126;11.594;2023-04-15T05:54:31;6.50;99.90
7445;DHT22;3764;48.126;11.594;2023-04-15T05:56:59;6.50;99.90
7445;DHT22;3764;48.126;11.594;2023-04-15T05:59:26;6.50;99.90
7445;DHT22;3764;48.126;11.594;2023-04-15T06:01:55;6.50;99.90
7445;DHT22;3764;48.126;11.594;2023-04-15T06:04:22;6.50;99.90
7445;DHT22;3764;48.126;11.594;2023-04-15T06:06:49;6.50;99.90
7445;DHT22;3764;48.126;11.594;2023-04-15T06:09:16;6.50;99.90
7445;DHT22;3764;48.126;11.594;2023-04-15T06:11:44;6.40;99.90
7445;DHT22;3764;48.126;11.594;2023-04-15T06:14:11;6.40;99.90
7445;DHT22;3764;48.126;11.594;2023-04-15T06:16:38;6.50;99.90
7445;DHT22;3764;48.126;11.594;2023-04-15T06:19:06;6.50;99.90
7445;DHT22;3764;48.126;11.594;2023-04-15T06:21:33;6.50;99.90
7445;DHT22;3764;48.126;11.594;2023-04-15T06:24:01;6.50;99.90
7445;DHT22;3764;48.126;11.594;2023-04-15T06:26:28;6.40;99.90
7445;DHT22;3764;48.126;11.594;2023-04-15T06:28:55;6.40;99.90
7445;DHT22;3764;48.126;11.594;2023-04-15T06:31:23;6.40;99.90
7445;DHT22;3764;48.126;11.594;2023-04-15T06:33:50;6.50;99.90
7445;DHT22;3764;48.126;11.594;2023-04-15T06:36:18;6.60;99.90
7445;DHT22;3764;48.126;11.594;2023-04-15T06:38:45;6.60;99.90
7445;DHT22;3764;48.126;11.594;2023-04-15T06:41:13;6.60;99.90
7445;DHT22;3764;48.126;11.594;2023-04-15T06:43:40;6.60;99.90
7445;DHT22;3764;48.126;11.594;2023-04-15T06:46:08;6.60;99.90
7445;DHT22;3764;48.126;11.594;2023-04-15T06:48:35;6.60;99.90
7445;DHT22;3764;48.126;11.594;2023-04-15T06:51:03;6.60;99.90
7445;DHT22;3764;48.126;11.594;2023-04-15T06:53:31;6.60;99.90
7445;DHT22;3764;48.126;11.594;2023-04-15T06:56:00;6.60;99.90
7445;DHT22;3764;48.126;11.594;2023-04-15T06:58:27;6.70;99.90
7445;DHT22;3764;48.126;11.594;2023-04-15T07:00:55;6.70;99.90
7445;DHT22;3764;48.126;11.594;2023-04-15T07:03:22;6.70;99.90
7445;DHT22;3764;48.126;11.594;2023-04-15T07:05:49;6.80;99.90
7445;DHT22;3764;48.126;11.594;2023-04-15T07:08:16;6.80;99.90
7445;DHT22;3764;48.126;11.594;2023-04-15T07:10:45;6.80;99.90
7445;DHT22;3764;48.126;11.594;2023-04-15T07:13:12;6.80;99.90
7445;DHT22;3764;48.126;11.594;2023-04-15T07:15:39;6.80;99.90
7445;DHT22;3764;48.126;11.594;2023-04-15T07:18:06;6.90;99.90
7445;DHT22;3764;48.126;11.594;2023-04-15T07:20:34;6.90;99.90
7445;DHT22;3764;48.126;11.594;2023-04-15T07:23:01;7.00;99.90
7445;DHT22;3764;48.126;11.594;2023-04-15T07:25:28;7.00;99.90
7445;DHT22;3764;48.126;11.594;2023-04-15T07:27:57;7.10;99.90
7445;DHT22;3764;48.126;11.594;2023-04-15T07:30:24;7.10;99.90
7445;DHT22;3764;48.126;11.594;2023-04-15T07:32:51;7.10;99.90
7445;DHT22;3764;48.126;11.594;2023-04-15T07:35:18;7.10;99.90
7445;DHT22;3764;48.126;11.594;2023-04-15T07:37:47;7.20;99.90
7445;DHT22;3764;48.126;11.594;2023-04-15T07:40:14;7.20;99.90
7445;DHT22;3764;48.126;11.594;2023-04-15T07:42:41;7.20;99.90
7445;DHT22;3764;48.126;11.594;2023-04-15T07:45:11;7.30;99.90
7445;DHT22;3764;48.126;11.594;2023-04-15T07:47:38;7.30;99.90
7445;DHT22;3764;48.126;11.594;2023-04-15T07:50:08;7.40;99.90
7445;DHT22;3764;48.126;11.594;2023-04-15T07:52:35;7.40;99.90
7445;DHT22;3764;48.126;11.594;2023-04-15T07:55:05;7.50;99.90
7445;DHT22;3764;48.126;11.594;2023-04-15T07:57:33;7.50;99.90
7445;DHT22;3764;48.126;11.594;2023-04-15T08:00:00;7.60;99.90
7445;DHT22;3764;48.126;11.594;2023-04-15T08:02:30;7.60;99.90
7445;DHT22;3764;48.126;11.594;2023-04-15T08:04:57;7.60;99.90
7445;DHT22;3764;48.126;11.594;2023-04-15T08:07:26;7.80;99.90
7445;DHT22;3764;48.126;11.594;2023-04-15T08:09:53;7.80;99.90
7445;DHT22;3764;48.126;11.594;2023-04-15T08:12:20;7.90;99.90
7445;DHT22;3764;48.126;11.594;2023-04-15T08:14:47;8.00;99.90
7445;DHT22;3764;48.126;11.594;2023-04-15T08:17:14;8.00;99.90
7445;DHT22;3764;48.126;11.594;2023-04-15T08:19:43;8.10;99.90
7445;DHT22;3764;48.126;11.594;2023-04-15T08:22:10;8.10;99.90
7445;DHT22;3764;48.126;11.594;2023-04-15T08:24:37;8.20;99.90
7445;DHT22;3764;48.126;11.594;2023-04-15T08:27:05;8.20;99.90
7445;DHT22;3764;48.126;11.594;2023-04-15T08:29:32;8.20;99.90
7445;DHT22;3764;48.126;11.594;2023-04-15T08:32:00;8.30;99.90
7445;DHT22;3764;48.126;11.594;2023-04-15T08:34:28;8.40;99.90
7445;DHT22;3764;48.126;11.594;2023-04-15T08:36:56;8.50;99.90
7445;DHT22;3764;48.126;11.594;2023-04-15T08:39:23;8.60;99.90
7445;DHT22;3764;48.126;11.594;2023-04-15T08:41:55;8.70;99.90
7445;DHT22;3764;48.126;11.594;2023-04-15T08:44:24;8.70;99.90
7445;DHT22;3764;48.126;11.594;2023-04-15T08:46:52;8.70;99.90
7445;DHT22;3764;48.126;11.594;2023-04-15T08:49:21;8.60;99.90
7445;DHT22;3764;48.126;11.594;2023-04-15T08:51:54;8.60;99.90
7445;DHT22;3764;48.126;11.594;2023-04-15T08:54:24;8.60;99.90
7445;DHT22;3764;48.126;11.594;2023-04-15T08:56:51;8.60;99.90
7445;DHT22;3764;48.126;11.594;2023-04-15T08:59:19;8.60;99.90
7445;DHT22;3764;48.126;11.594;2023-04-15T09:01:48;8.50;99.90
7445;DHT22;3764;48.126;11.594;2023-04-15T09:04:16;8.60;99.90
7445;DHT22;3764;48.126;11.594;2023-04-15T09:06:43;8.60;99.90
7445;DHT22;3764;48.126;11.594;2023-04-15T09:09:12;8.60;99.90
7445;DHT22;3764;48.126;11.594;2023-04-15T09:11:41;8.60;99.90
7445;DHT22;3764;48.126;11.594;2023-04-15T09:14:08;8.70;99.90
7445;DHT22;3764;48.126;11.594;2023-04-15T09:16:55;8.80;99.90
7445;DHT22;3764;48.126;11.594;2023-04-15T09:19:22;8.80;99.90
7445;DHT22;3764;48.126;11.594;2023-04-15T09:21:50;8.90;99.90
7445;DHT22;3764;48.126;11.594;2023-04-15T09:24:19;8.90;99.90
7445;DHT22;3764;48.126;11.594;2023-04-15T09:26:51;8.90;99.90
7445;DHT22;3764;48.126;11.594;2023-04-15T09:29:19;9.00;99.90
7445;DHT22;3764;48.126;11.594;2023-04-15T09:31:46;9.00;99.90
7445;DHT22;3764;48.126;11.594;2023-04-15T09:34:13;9.00;99.90
7445;DHT22;3764;48.126;11.594;2023-04-15T09:36:54;9.00;99.90
7445;DHT22;3764;48.126;11.594;2023-04-15T09:39:22;8.90;99.90
7445;DHT22;3764;48.126;11.594;2023-04-15T09:42:06;9.00;99.90
7445;DHT22;3764;48.126;11.594;2023-04-15T09:44:33;9.00;99.90
7445;DHT22;3764;48.126;11.594;2023-04-15T09:47:01;9.10;99.90
7445;DHT22;3764;48.126;11.594;2023-04-15T09:49:28;9.20;99.90
7445;DHT22;3764;48.126;11.594;2023-04-15T09:51:59;9.20;99.90
7445;DHT22;3764;48.126;11.594;2023-04-15T09:54:35;9.20;99.90
7445;DHT22;3764;48.126;11.594;2023-04-15T09:57:08;9.20;99.90
7445;DHT22;3764;48.126;11.594;2023-04-15T09:59:37;9.20;99.90
7445;DHT22;3764;48.126;11.594;2023-04-15T10:02:05;9.30;99.90
7445;DHT22;3764;48.126;11.594;2023-04-15T10:04:35;9.30;99.90
7445;DHT22;3764;48.126;11.594;2023-04-15T10:07:04;9.30;99.90
7445;DHT22;3764;48.126;11.594;2023-04-15T10:09:31;9.20;99.90
7445;DHT22;3764;48.126;11.594;2023-04-15T10:11:59;9.20;99.90
7445;DHT22;3764;48.126;11.594;2023-04-15T10:14:33;9.10;99.90
7445;DHT22;3764;48.126;11.594;2023-04-15T10:17:01;9.10;99.90
7445;DHT22;3764;48.126;11.594;2023-04-15T10:19:30;9.20;99.90
7445;DHT22;3764;48.126;11.594;2023-04-15T10:21:58;9.20;99.90
7445;DHT22;3764;48.126;11.594;2023-04-15T10:24:26;9.10;99.90
7445;DHT22;3764;48.126;11.594;2023-04-15T10:26:53;9.20;99.90
7445;DHT22;3764;48.126;11.594;2023-04-15T10:29:23;9.30;99.90
7445;DHT22;3764;48.126;11.594;2023-04-15T10:31:53;9.40;99.90
7445;DHT22;3764;48.126;11.594;2023-04-15T10:34:22;9.50;99.90
7445;DHT22;3764;48.126;11.594;2023-04-15T10:36:50;9.50;99.90
7445;DHT22;3764;48.126;11.594;2023-04-15T10:39:39;9.50;99.90
7445;DHT22;3764;48.126;11.594;2023-04-15T10:42:08;9.50;99.90
7445;DHT22;3764;48.126;11.594;2023-04-15T10:44:36;9.60;99.90
7445;DHT22;3764;48.126;11.594;2023-04-15T10:47:13;9.50;99.90
7445;DHT22;3764;48.126;11.594;2023-04-15T10:49:45;9.50;99.90
7445;DHT22;3764;48.126;11.594;2023-04-15T10:52:14;9.50;99.90
7445;DHT22;3764;48.126;11.594;2023-04-15T10:54:43;9.40;99.90
7445;DHT22;3764;48.126;11.594;2023-04-15T10:57:15;9.40;99.90
7445;DHT22;3764;48.126;11.594;2023-04-15T10:59:59;9.50;99.90
7445;DHT22;3764;48.126;11.594;2023-04-15T11:02:41;9.50;99.90
7445;DHT22;3764;48.126;11.594;2023-04-15T11:05:10;9.50;99.90
7445;DHT22;3764;48.126;11.594;2023-04-15T11:07:40;9.60;99.90
7445;DHT22;3764;48.126;11.594;2023-04-15T11:13:25;9.50;99.90
7445;DHT22;3764;48.126;11.594;2023-04-15T11:16:00;9.60;99.90
7445;DHT22;3764;48.126;11.594;2023-04-15T11:18:34;9.50;99.90
7445;DHT22;3764;48.126;11.594;2023-04-15T11:21:03;9.50;99.90
7445;DHT22;3764;48.126;11.594;2023-04-15T11:23:33;9.50;99.90
7445;DHT22;3764;48.126;11.594;2023-04-15T11:26:02;9.50;99.90
7445;DHT22;3764;48.126;11.594;2023-04-15T11:28:34;9.50;99.90
7445;DHT22;3764;48.126;11.594;2023-04-15T11:31:09;9.50;99.90
7445;DHT22;3764;48.126;11.594;2023-04-15T11:33:43;9.50;99.90
7445;DHT22;3764;48.126;11.594;2023-04-15T11:36:11;9.50;99.90
7445;DHT22;3764;48.126;11.594;2023-04-15T11:38:42;9.50;99.90
7445;DHT22;3764;48.126;11.594;2023-04-15T11:41:10;9.40;99.90
7445;DHT22;3764;48.126;11.594;2023-04-15T11:43:37;9.50;99.90
7445;DHT22;3764;48.126;11.594;2023-04-15T11:46:05;9.50;99.90
7445;DHT22;3764;48.126;11.594;2023-04-15T11:48:35;9.40;99.90
7445;DHT22;3764;48.126;11.594;2023-04-15T11:51:04;9.40;99.90
7445;DHT22;3764;48.126;11.594;2023-04-15T11:53:37;9.30;99.90
7445;DHT22;3764;48.126;11.594;2023-04-15T11:56:06;9.30;99.90
7445;DHT22;3764;48.126;11.594;2023-04-15T11:58:35;9.30;99.90
7445;DHT22;3764;48.126;11.594;2023-04-15T12:01:04;9.30;99.90
7445;DHT22;3764;48.126;11.594;2023-04-15T12:03:36;9.30;99.90
7445;DHT22;3764;48.126;11.594;2023-04-15T12:06:13;9.30;99.90
7445;DHT22;3764;48.126;11.594;2023-04-15T12:08:51;9.30;99.90
7445;DHT22;3764;48.126;11.594;2023-04-15T12:11:19;9.30;99.90
7445;DHT22;3764;48.126;11.594;2023-04-15T12:13:47;9.30;99.90
7445;DHT22;3764;48.126;11.594;2023-04-15T12:16:16;9.30;99.90
7445;DHT22;3764;48.126;11.594;2023-04-15T12:18:45;9.40;99.90
7445;DHT22;3764;48.126;11.594;2023-04-15T12:21:14;9.40;99.90
7445;DHT22;3764;48.126;11.594;2023-04-15T12:23:47;9.40;99.90
7445;DHT22;3764;48.126;11.594;2023-04-15T12:26:15;9.40;99.90
7445;DHT22;3764;48.126;11.594;2023-04-15T12:28:42;9.40;99.90
7445;DHT22;3764;48.126;11.594;2023-04-15T12:31:10;9.40;99.90
7445;DHT22;3764;48.126;11.594;2023-04-15T12:33:37;9.40;99.90
7445;DHT22;3764;48.126;11.594;2023-04-15T12:36:05;9.40;99.90
7445;DHT22;3764;48.126;11.594;2023-04-15T12:38:34;9.50;99.90
7445;DHT22;3764;48.126;11.594;2023-04-15T12:41:01;9.50;99.90
7445;DHT22;3764;48.126;11.594;2023-04-15T12:43:28;9.50;99.90
7445;DHT22;3764;48.126;11.594;2023-04-15T12:45:55;9.50;99.90
7445;DHT22;3764;48.126;11.594;2023-04-15T12:48:22;9.60;99.90
7445;DHT22;3764;48.126;11.594;2023-04-15T12:50:50;9.60;99.90
7445;DHT22;3764;48.126;11.594;2023-04-15T12:53:17;9.60;99.90
7445;DHT22;3764;48.126;11.594;2023-04-15T12:55:45;9.60;99.90
7445;DHT22;3764;48.126;11.594;2023-04-15T12:58:13;9.60;99.90
7445;DHT22;3764;48.126;11.594;2023-04-15T13:00:40;9.60;99.90
7445;DHT22;3764;48.126;11.594;2023-04-15T13:03:07;9.60;99.90
7445;DHT22;3764;48.126;11.594;2023-04-15T13:05:34;9.60;99.90
7445;DHT22;3764;48.126;11.594;2023-04-15T13:08:04;9.60;99.90
7445;DHT22;3764;48.126;11.594;2023-04-15T13:10:31;9.60;99.90
7445;DHT22;3764;48.126;11.594;2023-04-15T13:13:00;9.60;99.90
7445;DHT22;3764;48.126;11.594;2023-04-15T13:15:27;9.50;99.90
7445;DHT22;3764;48.126;11.594;2023-04-15T13:17:54;9.60;99.90
7445;DHT22;3764;48.126;11.594;2023-04-15T13:20:21;9.60;99.90
7445;DHT22;3764;48.126;11.594;2023-04-15T13:22:48;9.60;99.90
7445;DHT22;3764;48.126;11.594;2023-04-15T13:25:15;9.60;99.90
7445;DHT22;3764;48.126;11.594;2023-04-15T13:27:42;9.50;99.90
7445;DHT22;3764;48.126;11.594;2023-04-15T13:30:11;9.50;99.90
7445;DHT22;3764;48.126;11.594;2023-04-15T13:32:38;9.50;99.90
7445;DHT22;3764;48.126;11.594;2023-04-15T13:35:06;9.40;99.90
7445;DHT22;3764;48.126;11.594;2023-04-15T13:37:33;9.50;99.90
7445;DHT22;3764;48.126;11.594;2023-04-15T13:40:01;9.40;99.90
7445;DHT22;3764;48.126;11.594;2023-04-15T13:42:28;9.50;99.90
7445;DHT22;3764;48.126;11.594;2023-04-15T13:44:55;9.50;99.90
7445;DHT22;3764;48.126;11.594;2023-04-15T13:47:24;9.50;99.90
7445;DHT22;3764;48.126;11.594;2023-04-15T13:49:51;9.50;99.90
7445;DHT22;3764;48.126;11.594;2023-04-15T13:52:21;9.50;99.90
7445;DHT22;3764;48.126;11.594;2023-04-15T13:54:48;9.40;99.90
7445;DHT22;3764;48.126;11.594;2023-04-15T13:57:17;9.40;99.90
7445;DHT22;3764;48.126;11.594;2023-04-15T13:59:45;9.40;99.90
7445;DHT22;3764;48.126;11.594;2023-04-15T14:02:12;9.40;99.90
7445;DHT22;3764;48.126;11.594;2023-04-15T14:04:41;9.30;99.90
7445;DHT22;3764;48.126;11.594;2023-04-15T14:07:08;9.30;99.90
7445;DHT22;3764;48.126;11.594;2023-04-15T14:09:35;9.30;99.90
7445;DHT22;3764;48.126;11.594;2023-04-15T14:12:03;9.30;99.90
7445;DHT22;3764;48.126;11.594;2023-04-15T14:14:30;9.20;99.90
7445;DHT22;3764;48.126;11.594;2023-04-15T14:16:57;9.20;99.90
7445;DHT22;3764;48.126;11.594;2023-04-15T14:19:24;9.20;99.90
7445;DHT22;3764;48.126;11.594;2023-04-15T14:21:53;9.20;99.90
7445;DHT22;3764;48.126;11.594;2023-04-15T14:24:20;9.30;99.90
7445;DHT22;3764;48.126;11.594;2023-04-15T14:26:47;9.30;99.90
7445;DHT22;3764;48.126;11.594;2023-04-15T14:29:14;9.20;99.90
7445;DHT22;3764;48.126;11.594;2023-04-15T14:31:41;9.20;99.90
7445;DHT22;3764;48.126;11.594;2023-04-15T14:34:09;9.20;99.90
7445;DHT22;3764;48.126;11.594;2023-04-15T14:36:37;9.20;99.90
7445;DHT22;3764;48.126;11.594;2023-04-15T14:39:05;9.20;99.90
7445;DHT22;3764;48.126;11.594;2023-04-15T14:41:32;9.20;99.90
7445;DHT22;3764;48.126;11.594;2023-04-15T14:43:59;9.20;99.90
7445;DHT22;3764;48.126;11.594;2023-04-15T14:46:27;9.20;99.90
7445;DHT22;3764;48.126;11.594;2023-04-15T14:48:54;9.20;99.90
7445;DHT22;3764;48.126;11.594;2023-04-15T14:51:22;9.20;99.90
7445;DHT22;3764;48.126;11.594;2023-04-15T14:53:49;9.20;99.90
7445;DHT22;3764;48.126;11.594;2023-04-15T14:56:17;9.20;99.90
7445;DHT22;3764;48.126;11.594;2023-04-15T14:58:45;9.20;99.90
7445;DHT22;3764;48.126;11.594;2023-04-15T15:01:13;9.20;99.90
7445;DHT22;3764;48.126;11.594;2023-04-15T15:03:40;9.30;99.90
7445;DHT22;3764;48.126;11.594;2023-04-15T15:06:08;9.30;99.90
7445;DHT22;3764;48.126;11.594;2023-04-15T15:08:35;9.30;99.90
7445;DHT22;3764;48.126;11.594;2023-04-15T15:11:02;9.30;99.90
7445;DHT22;3764;48.126;11.594;2023-04-15T15:13:31;9.20;99.90
7445;DHT22;3764;48.126;11.594;2023-04-15T15:15:58;9.20;99.90
7445;DHT22;3764;48.126;11.594;2023-04-15T15:18:25;9.10;99.90
7445;DHT22;3764;48.126;11.594;2023-04-15T15:20:52;9.00;99.90
7445;DHT22;3764;48.126;11.594;2023-04-15T15:23:19;9.00;99.90
7445;DHT22;3764;48.126;11.594;2023-04-15T15:25:46;8.90;99.90
7445;DHT22;3764;48.126;11.594;2023-04-15T15:28:13;8.90;99.90
7445;DHT22;3764;48.126;11.594;2023-04-15T15:30:42;8.90;99.90
7445;DHT22;3764;48.126;11.594;2023-04-15T15:33:09;8.80;99.90
7445;DHT22;3764;48.126;11.594;2023-04-15T15:35:36;8.70;99.90
7445;DHT22;3764;48.126;11.594;2023-04-15T15:38:03;8.70;99.90
7445;DHT22;3764;48.126;11.594;2023-04-15T15:40:31;8.60;99.90
7445;DHT22;3764;48.126;11.594;2023-04-15T15:42:58;8.60;99.90
7445;DHT22;3764;48.126;11.594;2023-04-15T15:45:25;8.60;99.90
7445;DHT22;3764;48.126;11.594;2023-04-15T15:47:54;8.50;99.90
7445;DHT22;3764;48.126;11.594;2023-04-15T15:50:23;8.40;99.90
7445;DHT22;3764;48.126;11.594;2023-04-15T15:52:50;8.40;99.90
7445;DHT22;3764;48.126;11.594;2023-04-15T15:55:17;8.40;99.90
7445;DHT22;3764;48.126;11.594;2023-04-15T15:57:44;8.30;99.90
7445;DHT22;3764;48.126;11.594;2023-04-15T16:00:12;8.30;99.90
7445;DHT22;3764;48.126;11.594;2023-04-15T16:02:39;8.30;99.90
7445;DHT22;3764;48.126;11.594;2023-04-15T16:05:09;8.30;99.90
7445;DHT22;3764;48.126;11.594;2023-04-15T16:07:37;8.20;99.90
7445;DHT22;3764;48.126;11.594;2023-04-15T16:10:05;8.20;99.90